createdAt,value
2017-06-09T00:01:02.894Z,99.99
2017-06-09T00:02:12.847Z,99.99
2017-06-09T00:03:23.106Z,99.99
2017-06-09T00:04:33.364Z,99.99
2017-06-09T00:05:43.625Z,99.99
2017-06-09T00:06:53.885Z,99.99
2017-06-09T00:08:04.145Z,99.99
2017-06-09T00:09:14.092Z,99.99
2017-06-09T00:10:24.398Z,99.99
2017-06-09T00:11:34.669Z,99.99
2017-06-09T00:12:44.932Z,99.99
2017-06-09T00:13:55.193Z,99.99
2017-06-09T00:15:05.458Z,99.99
2017-06-09T00:16:15.411Z,99.99
2017-06-09T00:17:25.680Z,99.99
2017-06-09T00:18:35.951Z,99.99
2017-06-09T00:19:45.898Z,99.99
2017-06-09T00:20:56.164Z,99.99
2017-06-09T00:22:06.430Z,99.99
2017-06-09T00:23:16.382Z,99.99
2017-06-09T00:24:26.651Z,99.99
2017-06-09T00:25:36.910Z,99.99
2017-06-09T00:26:47.169Z,99.99
2017-06-09T00:27:57.429Z,99.99
2017-06-09T00:29:07.377Z,99.99
2017-06-09T00:30:16.694Z,99.99
2017-06-09T00:31:26.958Z,99.99
2017-06-09T00:32:36.907Z,99.99
2017-06-09T00:33:47.167Z,99.99
2017-06-09T00:34:57.432Z,99.99
2017-06-09T00:36:07.695Z,99.99
2017-06-09T00:37:17.958Z,99.99
2017-06-09T00:38:27.902Z,99.99
2017-06-09T00:39:38.161Z,99.99
2017-06-09T00:40:48.115Z,99.99
2017-06-09T00:41:58.056Z,99.99
2017-06-09T00:43:08.001Z,99.99
2017-06-09T00:44:17.942Z,99.99
2017-06-09T00:45:28.210Z,99.99
2017-06-09T00:46:38.474Z,99.99
2017-06-09T00:47:48.733Z,99.99
2017-06-09T00:48:58.992Z,99.99
2017-06-09T00:50:08.936Z,99.99
2017-06-09T00:51:19.229Z,99.99
2017-06-09T00:52:29.485Z,99.99
2017-06-09T00:53:39.747Z,99.99
2017-06-09T00:54:49.700Z,99.99
2017-06-09T00:55:59.642Z,99.99
2017-06-09T00:57:09.902Z,99.99
2017-06-09T00:58:19.229Z,99.99
2017-06-09T00:59:29.178Z,99.99
2017-06-09T01:00:39.440Z,99.99
2017-06-09T01:01:49.706Z,99.99
2017-06-09T01:02:59.964Z,99.99
2017-06-09T01:04:10.224Z,99.99
2017-06-09T01:05:20.484Z,99.99
2017-06-09T01:06:30.754Z,99.99
2017-06-09T01:07:41.029Z,99.99
2017-06-09T01:08:51.288Z,99.99
2017-06-09T01:10:01.242Z,99.99
2017-06-09T01:11:10.882Z,99.99
2017-06-09T01:12:21.147Z,99.99
2017-06-09T01:13:31.406Z,99.99
2017-06-09T01:14:41.672Z,99.99
2017-06-09T01:15:51.949Z,99.99
2017-06-09T01:17:02.206Z,99.99
2017-06-09T01:18:12.469Z,99.99
2017-06-09T01:19:22.419Z,99.99
2017-06-09T01:20:32.683Z,99.99
2017-06-09T01:21:42.943Z,99.99
2017-06-09T01:22:52.890Z,99.99
2017-06-09T01:24:03.153Z,99.99
2017-06-09T01:25:13.105Z,99.99
2017-06-09T01:26:22.738Z,99.75
2017-06-09T01:27:33.000Z,99.99
2017-06-09T01:28:43.259Z,99.99
2017-06-09T01:29:53.516Z,99.56
2017-06-09T01:31:03.780Z,99.99
2017-06-09T01:32:14.052Z,99.75
2017-06-09T01:33:24.318Z,99.37
2017-06-09T01:34:33.640Z,99.56
2017-06-09T01:35:43.898Z,99.66
2017-06-09T01:36:54.163Z,99.46
2017-06-09T01:38:04.111Z,99.75
2017-06-09T01:39:14.050Z,99.56
2017-06-09T01:40:24.304Z,99.56
2017-06-09T01:41:34.254Z,99.66
2017-06-09T01:42:44.514Z,99.85
2017-06-09T01:43:54.773Z,99.75
2017-06-09T01:45:05.040Z,99.56
2017-06-09T01:46:14.988Z,99.46
2017-06-09T01:47:24.932Z,99.27
2017-06-09T01:48:34.880Z,98.99
2017-06-09T01:49:44.828Z,99.08
2017-06-09T01:50:54.771Z,99.37
2017-06-09T01:52:05.036Z,98.8
2017-06-09T01:53:15.013Z,98.7
2017-06-09T01:54:25.276Z,98.9
2017-06-09T01:55:35.545Z,98.9
2017-06-09T01:56:45.803Z,98.8
2017-06-09T01:57:56.069Z,99.08
2017-06-09T01:59:06.339Z,98.99
2017-06-09T02:00:16.602Z,99.75
2017-06-09T02:01:26.546Z,99.99
2017-06-09T02:02:36.818Z,99.95
2017-06-09T02:03:47.083Z,99.99
2017-06-09T02:04:57.342Z,99.99
2017-06-09T02:06:07.601Z,99.99
2017-06-09T02:07:17.242Z,99.99
2017-06-09T02:08:26.871Z,99.99
2017-06-09T02:09:36.819Z,99.99
2017-06-09T02:10:47.082Z,99.99
2017-06-09T02:11:57.030Z,99.99
2017-06-09T02:13:06.972Z,99.99
2017-06-09T02:14:16.915Z,99.99
2017-06-09T02:15:27.171Z,99.99
2017-06-09T02:16:37.425Z,99.99
2017-06-09T02:17:47.680Z,99.99
2017-06-09T02:18:57.312Z,99.89
2017-06-09T02:20:07.576Z,99.8
2017-06-09T02:21:17.526Z,99.7
2017-06-09T02:22:27.155Z,99.99
2017-06-09T02:23:37.422Z,99.99
2017-06-09T02:24:47.685Z,99.89
2017-06-09T02:25:57.949Z,99.6
2017-06-09T02:27:08.210Z,99.7
2017-06-09T02:28:17.840Z,99.6
2017-06-09T02:29:28.098Z,99.13
2017-06-09T02:30:38.363Z,99.41
2017-06-09T02:31:48.315Z,98.94
2017-06-09T02:32:58.576Z,99.22
2017-06-09T02:34:08.839Z,98.85
2017-06-09T02:35:18.787Z,99.7
2017-06-09T02:36:28.731Z,99.6
2017-06-09T02:37:38.996Z,99.8
2017-06-09T02:38:49.302Z,99.6
2017-06-09T02:39:59.562Z,99.7
2017-06-09T02:41:09.820Z,99.89
2017-06-09T02:42:19.767Z,99.99
2017-06-09T02:43:29.709Z,99.51
2017-06-09T02:44:39.654Z,99.7
2017-06-09T02:45:49.596Z,99.99
2017-06-09T02:46:59.853Z,99.51
2017-06-09T02:48:09.797Z,99.99
2017-06-09T02:49:19.743Z,99.8
2017-06-09T02:50:30.002Z,99.99
2017-06-09T02:51:40.261Z,99.99
2017-06-09T02:52:50.213Z,99.8
2017-06-09T02:54:00.471Z,99.99
2017-06-09T02:55:10.101Z,99.99
2017-06-09T02:56:19.732Z,99.99
2017-06-09T02:57:30.045Z,99.99
2017-06-09T02:58:39.995Z,99.99
2017-06-09T02:59:49.630Z,99.99
2017-06-09T03:00:59.576Z,99.7
2017-06-09T03:02:09.847Z,99.99
2017-06-09T03:03:20.102Z,99.99
2017-06-09T03:04:30.047Z,99.99
2017-06-09T03:05:43.125Z,99.99
2017-06-09T03:06:53.377Z,99.99
2017-06-09T03:08:03.643Z,99.89
2017-06-09T03:09:13.589Z,99.99
2017-06-09T03:10:23.532Z,99.99
2017-06-09T03:11:33.804Z,99.6
2017-06-09T03:12:44.058Z,99.6
2017-06-09T03:13:53.698Z,99.8
2017-06-09T03:15:03.642Z,99.8
2017-06-09T03:16:13.950Z,99.6
2017-06-09T03:17:24.216Z,99.7
2017-06-09T03:18:34.165Z,99.51
2017-06-09T03:19:44.112Z,99.89
2017-06-09T03:20:54.373Z,99.6
2017-06-09T03:22:04.327Z,99.32
2017-06-09T03:23:14.587Z,99.13
2017-06-09T03:24:24.853Z,99.22
2017-06-09T03:25:35.119Z,98.75
2017-06-09T03:26:45.380Z,98.56
2017-06-09T03:27:55.331Z,98.75
2017-06-09T03:29:05.594Z,98.27
2017-06-09T03:30:15.866Z,98.56
2017-06-09T03:31:26.125Z,98.36
2017-06-09T03:32:35.760Z,98.27
2017-06-09T03:33:46.032Z,97.94
2017-06-09T03:34:56.344Z,97.56
2017-06-09T03:36:06.609Z,97.85
2017-06-09T03:37:16.871Z,98.32
2017-06-09T03:38:27.131Z,97.66
2017-06-09T03:39:37.080Z,97.46
2017-06-09T03:40:47.357Z,97.56
2017-06-09T03:41:57.615Z,97.27
2017-06-09T03:43:07.874Z,97.27
2017-06-09T03:44:17.823Z,96.8
2017-06-09T03:45:27.775Z,96.98
2017-06-09T03:46:38.051Z,96.61
2017-06-09T03:47:48.321Z,96.22
2017-06-09T03:48:58.265Z,96.51
2017-06-09T03:50:08.216Z,96.51
2017-06-09T03:51:18.158Z,96.27
2017-06-09T03:52:28.111Z,95.98
2017-06-09T03:53:38.071Z,95.79
2017-06-09T03:54:48.337Z,95.12
2017-06-09T03:55:58.598Z,95.12
2017-06-09T03:57:08.553Z,95.41
2017-06-09T03:58:18.817Z,95.32
2017-06-09T03:59:29.083Z,94.46
2017-06-09T04:00:39.337Z,94.93
2017-06-09T04:01:49.594Z,94.65
2017-06-09T04:02:59.539Z,94.27
2017-06-09T04:04:09.484Z,94.46
2017-06-09T04:05:19.437Z,94.07
2017-06-09T04:06:29.697Z,93.98
2017-06-09T04:07:39.956Z,93.31
2017-06-09T04:08:49.900Z,93.22
2017-06-09T04:10:00.172Z,93.36
2017-06-09T04:11:10.436Z,93.26
2017-06-09T04:12:20.700Z,93.26
2017-06-09T04:13:30.963Z,93.65
2017-06-09T04:14:41.229Z,93.17
2017-06-09T04:15:51.488Z,92.5
2017-06-09T04:17:01.760Z,92.31
2017-06-09T04:18:11.713Z,92.41
2017-06-09T04:19:21.976Z,92.41
2017-06-09T04:20:31.926Z,92.21
2017-06-09T04:21:42.194Z,93.07
2017-06-09T04:22:52.179Z,92.97
2017-06-09T04:24:02.129Z,91.83
2017-06-09T04:25:12.393Z,91.45
2017-06-09T04:26:22.654Z,92.21
2017-06-09T04:27:32.913Z,92.5
2017-06-09T04:28:43.172Z,92.12
2017-06-09T04:29:53.118Z,91.64
2017-06-09T04:31:03.379Z,92.02
2017-06-09T04:32:13.047Z,91.74
2017-06-09T04:33:23.002Z,91.74
2017-06-09T04:34:33.259Z,91.07
2017-06-09T04:35:43.522Z,90.69
2017-06-09T04:36:53.779Z,90.78
2017-06-09T04:38:04.043Z,91.16
2017-06-09T04:39:14.305Z,90.88
2017-06-09T04:40:24.270Z,91.16
2017-06-09T04:41:34.221Z,90.88
2017-06-09T04:42:44.164Z,91.64
2017-06-09T04:43:54.420Z,91.36
2017-06-09T04:45:04.682Z,91.88
2017-06-09T04:46:14.632Z,91.69
2017-06-09T04:47:24.889Z,91.5
2017-06-09T04:48:34.523Z,91.69
2017-06-09T04:49:44.782Z,92.26
2017-06-09T04:50:55.046Z,92.17
2017-06-09T04:52:05.312Z,92.36
2017-06-09T04:53:15.261Z,91.78
2017-06-09T04:54:25.209Z,92.36
2017-06-09T04:55:35.472Z,91.98
2017-06-09T04:56:45.411Z,92.07
2017-06-09T04:57:55.441Z,92.26
2017-06-09T04:59:05.707Z,91.6
2017-06-09T05:00:15.337Z,92.07
2017-06-09T05:01:24.967Z,92.17
2017-06-09T05:02:34.648Z,91.69
2017-06-09T05:03:44.909Z,91.6
2017-06-09T05:04:55.167Z,92.17
2017-06-09T05:06:05.431Z,91.88
2017-06-09T05:07:15.380Z,91.98
2017-06-09T05:08:25.016Z,91.41
2017-06-09T05:09:34.968Z,92.17
2017-06-09T05:10:44.602Z,92.17
2017-06-09T05:11:54.891Z,92.36
2017-06-09T05:13:05.156Z,92.07
2017-06-09T05:14:15.413Z,91.69
2017-06-09T05:15:25.684Z,91.41
2017-06-09T05:16:35.951Z,91.6
2017-06-09T05:17:45.897Z,91.78
2017-06-09T05:18:55.847Z,91.31
2017-06-09T05:20:05.807Z,91.5
2017-06-09T05:21:16.068Z,91.69
2017-06-09T05:22:26.025Z,91.5
2017-06-09T05:23:36.290Z,91.5
2017-06-09T05:24:46.548Z,91.88
2017-06-09T05:25:56.489Z,90.93
2017-06-09T05:27:06.748Z,90.93
2017-06-09T05:28:16.691Z,90.36
2017-06-09T05:29:26.954Z,90.73
2017-06-09T05:30:37.213Z,90.55
2017-06-09T05:31:47.475Z,90.73
2017-06-09T05:32:57.119Z,91.45
2017-06-09T05:34:07.072Z,90.97
2017-06-09T05:35:17.341Z,91.16
2017-06-09T05:36:27.609Z,90.78
2017-06-09T05:37:37.872Z,90.78
2017-06-09T05:38:48.127Z,90.59
2017-06-09T05:39:58.080Z,90.5
2017-06-09T05:41:08.342Z,90.31
2017-06-09T05:42:18.605Z,90.21
2017-06-09T05:43:28.865Z,90.59
2017-06-09T05:44:38.811Z,90.31
2017-06-09T05:45:48.764Z,89.35
2017-06-09T05:46:58.715Z,89.64
2017-06-09T05:48:08.354Z,89.64
2017-06-09T05:49:17.983Z,90.02
2017-06-09T05:50:28.441Z,89.45
2017-06-09T05:51:38.687Z,89.35
2017-06-09T05:52:49.154Z,89.25
2017-06-09T05:53:59.100Z,89.25
2017-06-09T05:55:09.362Z,89.64
2017-06-09T05:56:19.321Z,88.59
2017-06-09T05:57:29.589Z,88.3
2017-06-09T05:58:39.548Z,88.3
2017-06-09T05:59:49.810Z,88.78
2017-06-09T06:01:00.073Z,89.64
2017-06-09T06:02:10.337Z,89.83
2017-06-09T06:03:20.288Z,89.73
2017-06-09T06:04:30.245Z,89.64
2017-06-09T06:05:40.507Z,89.64
2017-06-09T06:06:50.771Z,89.73
2017-06-09T06:08:01.037Z,89.64
2017-06-09T06:09:10.364Z,89.35
2017-06-09T06:10:20.314Z,88.97
2017-06-09T06:11:30.579Z,89.11
2017-06-09T06:12:40.846Z,88.97
2017-06-09T06:13:50.827Z,89.01
2017-06-09T06:15:01.086Z,88.54
2017-06-09T06:16:11.351Z,88.92
2017-06-09T06:17:21.612Z,89.01
2017-06-09T06:18:31.881Z,88.78
2017-06-09T06:19:42.143Z,88.97
2017-06-09T06:20:52.418Z,88.73
2017-06-09T06:22:02.680Z,88.97
2017-06-09T06:23:12.943Z,89.68
2017-06-09T06:24:23.206Z,88.82
2017-06-09T06:25:33.471Z,88.63
2017-06-09T06:26:43.426Z,89.01
2017-06-09T06:27:53.691Z,89.68
2017-06-09T06:29:03.951Z,88.25
2017-06-09T06:30:14.221Z,88.63
2017-06-09T06:31:24.165Z,87.87
2017-06-09T06:32:34.121Z,88.63
2017-06-09T06:33:44.389Z,87.96
2017-06-09T06:34:54.656Z,87.77
2017-06-09T06:36:04.946Z,87.58
2017-06-09T06:37:14.896Z,87.68
2017-06-09T06:38:25.157Z,87.58
2017-06-09T06:39:34.784Z,87.96
2017-06-09T06:40:45.047Z,87.58
2017-06-09T06:41:55.318Z,88.15
2017-06-09T06:43:05.264Z,87.87
2017-06-09T06:44:15.531Z,88.25
2017-06-09T06:45:25.794Z,88.15
2017-06-09T06:46:35.123Z,87.68
2017-06-09T06:47:45.425Z,86.82
2017-06-09T06:48:55.692Z,87.01
2017-06-09T06:50:05.647Z,86.63
2017-06-09T06:51:15.285Z,86.05
2017-06-09T06:52:25.563Z,86.34
2017-06-09T06:53:35.205Z,85.77
2017-06-09T06:54:45.464Z,85.86
2017-06-09T06:55:55.736Z,86.43
2017-06-09T06:57:05.685Z,85.19
2017-06-09T06:58:15.631Z,86.15
2017-06-09T06:59:25.580Z,86.24
2017-06-09T07:00:35.215Z,85.96
2017-06-09T07:01:45.161Z,85.96
2017-06-09T07:02:55.418Z,85.19
2017-06-09T07:04:05.685Z,85.52
2017-06-09T07:05:15.950Z,85.24
2017-06-09T07:06:25.592Z,85.14
2017-06-09T07:07:35.236Z,85.52
2017-06-09T07:08:45.188Z,84.85
2017-06-09T07:09:55.134Z,85.24
2017-06-09T07:11:05.088Z,85.33
2017-06-09T07:12:15.046Z,85.14
2017-06-09T07:13:25.310Z,85.71
2017-06-09T07:14:35.257Z,85.62
2017-06-09T07:15:45.522Z,85.05
2017-06-09T07:16:55.777Z,85.05
2017-06-09T07:18:06.033Z,85.62
2017-06-09T07:19:16.294Z,85.19
2017-06-09T07:20:26.558Z,86.05
2017-06-09T07:21:36.506Z,85.77
2017-06-09T07:22:46.767Z,86.15
2017-06-09T07:23:56.713Z,86.43
2017-06-09T07:25:06.975Z,86.91
2017-06-09T07:26:15.983Z,87.39
2017-06-09T07:27:26.245Z,87.39
2017-06-09T07:28:36.194Z,87.39
2017-06-09T07:29:46.465Z,87.68
2017-06-09T07:30:56.740Z,87.39
2017-06-09T07:32:07.009Z,87.68
2017-06-09T07:33:17.273Z,87.68
2017-06-09T07:34:27.219Z,87.77
2017-06-09T07:35:37.166Z,87.77
2017-06-09T07:36:47.451Z,87.96
2017-06-09T07:37:57.715Z,87.96
2017-06-09T07:39:07.668Z,88.06
2017-06-09T07:40:17.931Z,87.96
2017-06-09T07:41:28.197Z,88.06
2017-06-09T07:42:38.460Z,87.68
2017-06-09T07:43:48.721Z,87.96
2017-06-09T07:44:58.979Z,87.96
2017-06-09T07:46:09.242Z,88.82
2017-06-09T07:47:19.188Z,87.68
2017-06-09T07:48:29.455Z,87.77
2017-06-09T07:49:39.406Z,87.01
2017-06-09T07:50:49.705Z,87.87
2017-06-09T07:51:59.969Z,87.48
2017-06-09T07:53:09.604Z,87.48
2017-06-09T07:54:19.556Z,87.29
2017-06-09T07:55:29.509Z,87.53
2017-06-09T07:56:39.777Z,87.82
2017-06-09T07:57:50.046Z,87.72
2017-06-09T07:59:00.314Z,87.91
2017-06-09T08:00:10.581Z,87.43
2017-06-09T08:01:20.887Z,86.96
2017-06-09T08:02:30.523Z,87.43
2017-06-09T08:03:40.838Z,86.86
2017-06-09T08:04:50.470Z,86.86
2017-06-09T08:06:00.424Z,87.34
2017-06-09T08:07:10.690Z,87.62
2017-06-09T08:08:20.642Z,87.34
2017-06-09T08:09:30.910Z,87.72
2017-06-09T08:10:40.869Z,87.72
2017-06-09T08:11:51.138Z,87.53
2017-06-09T08:13:01.402Z,87.62
2017-06-09T08:14:11.666Z,88.1
2017-06-09T08:15:21.924Z,88.06
2017-06-09T08:16:32.185Z,88.44
2017-06-09T08:17:42.457Z,87.68
2017-06-09T08:18:52.724Z,87.68
2017-06-09T08:20:03.015Z,87.87
2017-06-09T08:21:13.298Z,87.77
2017-06-09T08:22:23.567Z,87.77
2017-06-09T08:23:33.831Z,87.87
2017-06-09T08:24:43.783Z,88.1
2017-06-09T08:25:54.049Z,87.39
2017-06-09T08:27:04.312Z,87.91
2017-06-09T08:28:14.580Z,87.91
2017-06-09T08:29:24.214Z,88.01
2017-06-09T08:30:34.181Z,87.91
2017-06-09T08:31:44.445Z,87.91
2017-06-09T08:32:54.718Z,87.91
2017-06-09T08:34:04.980Z,88.05
2017-06-09T08:35:15.252Z,87.76
2017-06-09T08:36:25.198Z,87.76
2017-06-09T08:37:35.468Z,87.29
2017-06-09T08:38:45.733Z,87.38
2017-06-09T08:39:55.696Z,87.48
2017-06-09T08:41:05.962Z,87.38
2017-06-09T08:42:16.225Z,87.09
2017-06-09T08:43:26.489Z,86.9
2017-06-09T08:44:36.443Z,86.52
2017-06-09T08:45:46.747Z,86.04
2017-06-09T08:46:56.707Z,86.71
2017-06-09T08:48:06.661Z,85.94
2017-06-09T08:49:16.926Z,86.52
2017-06-09T08:50:27.195Z,86.14
2017-06-09T08:51:37.456Z,87.23
2017-06-09T08:52:47.405Z,86.66
2017-06-09T08:53:57.665Z,86.08
2017-06-09T08:55:07.949Z,85.61
2017-06-09T08:56:18.210Z,85.99
2017-06-09T08:57:27.534Z,85.61
2017-06-09T08:58:37.799Z,85.61
2017-06-09T08:59:48.064Z,85.22
2017-06-09T09:00:58.334Z,85.41
2017-06-09T09:02:08.597Z,85.32
2017-06-09T09:03:18.548Z,86.04
2017-06-09T09:04:28.807Z,86.14
2017-06-09T09:05:38.761Z,86.33
2017-06-09T09:06:48.399Z,86.9
2017-06-09T09:07:58.663Z,86.33
2017-06-09T09:09:08.614Z,86.57
2017-06-09T09:10:18.564Z,86.86
2017-06-09T09:11:28.830Z,87.34
2017-06-09T09:12:39.092Z,87.62
2017-06-09T09:13:49.033Z,87.91
2017-06-09T09:14:59.300Z,88.1
2017-06-09T09:16:09.566Z,87.72
2017-06-09T09:17:19.534Z,88.54
2017-06-09T09:18:29.807Z,87.87
2017-06-09T09:19:39.757Z,88.54
2017-06-09T09:20:49.710Z,89.01
2017-06-09T09:21:59.970Z,88.92
2017-06-09T09:23:09.945Z,89.3
2017-06-09T09:24:19.896Z,89.87
2017-06-09T09:25:30.166Z,90.02
2017-06-09T09:26:40.431Z,90.4
2017-06-09T09:27:50.688Z,89.35
2017-06-09T09:29:00.944Z,90.11
2017-06-09T09:30:10.902Z,90.31
2017-06-09T09:31:21.165Z,90.5
2017-06-09T09:32:31.434Z,90.4
2017-06-09T09:33:41.382Z,91.16
2017-06-09T09:34:51.648Z,90.78
2017-06-09T09:36:01.912Z,90.21
2017-06-09T09:37:12.182Z,91.74
2017-06-09T09:38:22.125Z,91.83
2017-06-09T09:39:32.391Z,92.02
2017-06-09T09:40:42.345Z,91.83
2017-06-09T09:41:52.339Z,92.31
2017-06-09T09:43:02.288Z,92.41
2017-06-09T09:44:12.545Z,92.12
2017-06-09T09:45:22.802Z,92.02
2017-06-09T09:46:32.754Z,92.21
2017-06-09T09:47:42.459Z,92.41
2017-06-09T09:48:52.405Z,92.88
2017-06-09T09:50:02.670Z,92.55
2017-06-09T09:51:12.622Z,93.41
2017-06-09T09:52:22.887Z,93.36
2017-06-09T09:53:32.835Z,93.79
2017-06-09T09:54:43.104Z,93.12
2017-06-09T09:55:53.369Z,93.51
2017-06-09T09:57:03.638Z,94.27
2017-06-09T09:58:13.584Z,93.7
2017-06-09T09:59:23.217Z,94.17
2017-06-09T10:00:32.886Z,94.46
2017-06-09T10:01:42.522Z,94.84
2017-06-09T10:02:52.783Z,94.65
2017-06-09T10:04:03.043Z,94.93
2017-06-09T10:05:13.369Z,94.93
2017-06-09T10:06:23.314Z,95.12
2017-06-09T10:07:33.257Z,95.51
2017-06-09T10:08:43.553Z,95.61
2017-06-09T10:09:53.508Z,95.98
2017-06-09T10:11:03.463Z,95.7
2017-06-09T10:12:13.719Z,95.98
2017-06-09T10:13:23.667Z,95.7
2017-06-09T10:14:33.624Z,95.41
2017-06-09T10:15:43.888Z,95.89
2017-06-09T10:16:54.153Z,96.56
2017-06-09T10:18:03.786Z,96.66
2017-06-09T10:19:13.733Z,96.66
2017-06-09T10:20:23.365Z,96.46
2017-06-09T10:21:33.626Z,96.94
2017-06-09T10:22:43.893Z,96.84
2017-06-09T10:23:54.174Z,96.46
2017-06-09T10:25:04.435Z,96.66
2017-06-09T10:26:14.699Z,97.61
2017-06-09T10:27:24.970Z,96.66
2017-06-09T10:28:35.228Z,97.61
2017-06-09T10:29:45.496Z,97.51
2017-06-09T10:30:55.759Z,97.32
2017-06-09T10:32:06.023Z,97.8
2017-06-09T10:33:16.290Z,97.61
2017-06-09T10:34:25.925Z,97.22
2017-06-09T10:35:36.188Z,97.22
2017-06-09T10:36:46.447Z,98.27
2017-06-09T10:37:56.712Z,98.18
2017-06-09T10:39:06.975Z,98.27
2017-06-09T10:40:17.237Z,98.94
2017-06-09T10:41:27.189Z,98.37
2017-06-09T10:42:37.145Z,98.47
2017-06-09T10:43:47.408Z,98.56
2017-06-09T10:44:57.670Z,98.47
2017-06-09T10:46:07.927Z,98.47
2017-06-09T10:47:17.879Z,98.56
2017-06-09T10:48:28.186Z,99.08
2017-06-09T10:49:38.444Z,99.32
2017-06-09T10:50:48.706Z,98.85
2017-06-09T10:51:58.971Z,98.75
2017-06-09T10:53:09.241Z,99.13
2017-06-09T10:54:19.183Z,98.85
2017-06-09T10:55:29.131Z,99.04
2017-06-09T10:56:39.399Z,98.75
2017-06-09T10:57:49.665Z,99.04
2017-06-09T10:58:59.927Z,98.85
2017-06-09T11:00:10.191Z,98.56
2017-06-09T11:01:20.453Z,98.56
2017-06-09T11:02:29.781Z,98.75
2017-06-09T11:03:39.727Z,98.56
2017-06-09T11:04:49.987Z,98.56
2017-06-09T11:05:59.849Z,98.61
2017-06-09T11:07:10.121Z,98.52
2017-06-09T11:08:20.374Z,98.52
2017-06-09T11:09:30.321Z,97.85
2017-06-09T11:10:40.582Z,97.66
2017-06-09T11:11:50.845Z,97.37
2017-06-09T11:13:00.794Z,97.66
2017-06-09T11:14:11.097Z,97.13
2017-06-09T11:15:21.043Z,96.94
2017-06-09T11:16:31.315Z,96.84
2017-06-09T11:17:41.267Z,96.46
2017-06-09T11:18:51.217Z,96.37
2017-06-09T11:20:01.482Z,96.46
2017-06-09T11:21:11.433Z,96.66
2017-06-09T11:22:21.075Z,96.75
2017-06-09T11:23:30.715Z,95.79
2017-06-09T11:24:40.976Z,95.98
2017-06-09T11:25:51.242Z,95.7
2017-06-09T11:27:01.502Z,95.61
2017-06-09T11:28:11.456Z,96.17
2017-06-09T11:29:21.102Z,95.7
2017-06-09T11:30:31.059Z,95.41
2017-06-09T11:31:41.319Z,95.7
2017-06-09T11:32:51.270Z,95.41
2017-06-09T11:34:01.527Z,95.17
2017-06-09T11:35:11.471Z,95.36
2017-06-09T11:36:21.730Z,94.98
2017-06-09T11:37:31.996Z,94.46
2017-06-09T11:38:42.265Z,94.46
2017-06-09T11:39:52.523Z,93.6
2017-06-09T11:41:02.784Z,94.17
2017-06-09T11:42:13.050Z,93.4
2017-06-09T11:43:23.312Z,92.88
2017-06-09T11:44:33.579Z,93.07
2017-06-09T11:45:43.858Z,92.4
2017-06-09T11:46:53.497Z,91.53
2017-06-09T11:48:03.756Z,91.73
2017-06-09T11:49:14.023Z,91.83
2017-06-09T11:50:23.657Z,91.63
2017-06-09T11:51:33.924Z,91.39
2017-06-09T11:52:43.866Z,91.39
2017-06-09T11:53:53.815Z,91.39
2017-06-09T11:55:04.072Z,91.78
2017-06-09T11:56:14.327Z,91.68
2017-06-09T11:57:24.586Z,91.59
2017-06-09T11:58:34.846Z,92.07
2017-06-09T11:59:45.104Z,91.78
2017-06-09T12:00:55.371Z,91.97
2017-06-09T12:02:05.319Z,91.68
2017-06-09T12:03:15.261Z,91.68
2017-06-09T12:04:25.207Z,92.16
2017-06-09T12:05:35.466Z,92.35
2017-06-09T12:06:45.730Z,92.45
2017-06-09T12:07:55.993Z,92.54
2017-06-09T12:09:06.258Z,93.26
2017-06-09T12:10:16.206Z,92.25
2017-06-09T12:11:26.468Z,93.02
2017-06-09T12:12:36.104Z,93.26
2017-06-09T12:13:46.364Z,93.16
2017-06-09T12:14:56.314Z,93.36
2017-06-09T12:16:06.259Z,94.31
2017-06-09T12:17:15.895Z,94.41
2017-06-09T12:18:25.872Z,94.7
2017-06-09T12:19:36.141Z,93.74
2017-06-09T12:20:46.400Z,94.79
2017-06-09T12:21:56.031Z,94.17
2017-06-09T12:23:05.979Z,95.46
2017-06-09T12:24:15.919Z,95.51
2017-06-09T12:25:25.865Z,94.65
2017-06-09T12:26:36.132Z,94.36
2017-06-09T12:27:46.078Z,95.41
2017-06-09T12:28:56.021Z,94.36
2017-06-09T12:30:06.279Z,95.61
2017-06-09T12:31:16.227Z,94.84
2017-06-09T12:32:26.485Z,94.74
2017-06-09T12:33:36.736Z,95.7
2017-06-09T12:34:46.991Z,95.12
2017-06-09T12:35:57.265Z,95.7
2017-06-09T12:37:07.528Z,95.61
2017-06-09T12:38:17.787Z,95.7
2017-06-09T12:39:28.052Z,95.61
2017-06-09T12:40:38.313Z,95.03
2017-06-09T12:41:47.943Z,95.51
2017-06-09T12:42:57.893Z,95.41
2017-06-09T12:44:08.151Z,94.93
2017-06-09T12:45:18.102Z,94.98
2017-06-09T12:46:28.049Z,94.51
2017-06-09T12:47:38.310Z,94.41
2017-06-09T12:48:48.260Z,94.41
2017-06-09T12:49:58.206Z,94.02
2017-06-09T12:51:07.838Z,94.22
2017-06-09T12:52:17.468Z,94.07
2017-06-09T12:53:27.729Z,94.17
2017-06-09T12:54:37.992Z,93.6
2017-06-09T12:55:48.248Z,94.07
2017-06-09T12:56:58.511Z,93.79
2017-06-09T12:58:08.773Z,93.4
2017-06-09T12:59:18.418Z,93.16
2017-06-09T13:00:28.681Z,93.26
2017-06-09T13:01:38.949Z,92.59
2017-06-09T13:02:48.584Z,92.4
2017-06-09T13:03:58.530Z,91.63
2017-06-09T13:05:08.486Z,92.21
2017-06-09T13:06:18.746Z,91.92
2017-06-09T13:07:28.700Z,91.83
2017-06-09T13:08:38.970Z,92.21
2017-06-09T13:09:48.918Z,91.44
2017-06-09T13:10:58.871Z,91.92
2017-06-09T13:12:09.141Z,91.16
2017-06-09T13:13:19.398Z,91.25
2017-06-09T13:14:29.355Z,91.83
2017-06-09T13:15:39.618Z,92.11
2017-06-09T13:16:49.882Z,91.83
2017-06-09T13:18:00.153Z,91.63
2017-06-09T13:19:10.097Z,92.3
2017-06-09T13:20:20.358Z,91.39
2017-06-09T13:21:30.616Z,91.63
2017-06-09T13:22:40.567Z,91.53
2017-06-09T13:23:50.846Z,91.83
2017-06-09T13:25:01.113Z,91.16
2017-06-09T13:26:10.751Z,91.53
2017-06-09T13:27:21.012Z,92.21
2017-06-09T13:28:31.270Z,92.21
2017-06-09T13:29:41.221Z,92.49
2017-06-09T13:30:51.498Z,92.11
2017-06-09T13:32:01.761Z,91.92
2017-06-09T13:33:12.029Z,90.3
2017-06-09T13:34:21.971Z,90.24
2017-06-09T13:35:32.233Z,89.86
2017-06-09T13:36:42.184Z,89.67
2017-06-09T13:37:52.445Z,89.76
2017-06-09T13:39:02.706Z,90.15
2017-06-09T13:40:12.964Z,89.67
2017-06-09T13:41:23.229Z,89.48
2017-06-09T13:42:33.490Z,89.62
2017-06-09T13:43:43.138Z,88.66
2017-06-09T13:44:53.085Z,88.09
2017-06-09T13:46:03.057Z,87.99
2017-06-09T13:47:12.688Z,88.09
2017-06-09T13:48:22.637Z,88.37
2017-06-09T13:49:32.900Z,88.18
2017-06-09T13:50:43.162Z,88.18
2017-06-09T13:51:53.423Z,88.04
2017-06-09T13:53:03.365Z,88.23
2017-06-09T13:54:13.627Z,88.81
2017-06-09T13:55:23.891Z,89.19
2017-06-09T13:56:34.154Z,90.1
2017-06-09T13:57:44.426Z,90.58
2017-06-09T13:58:54.694Z,90.3
2017-06-09T14:00:04.649Z,89.91
2017-06-09T14:01:14.921Z,90.58
2017-06-09T14:02:25.186Z,91.59
2017-06-09T14:03:35.453Z,90.92
2017-06-09T14:04:45.733Z,91.78
2017-06-09T14:05:55.995Z,91.49
2017-06-09T14:07:06.254Z,91.39
2017-06-09T14:08:16.511Z,92.45
2017-06-09T14:09:26.772Z,92.54
2017-06-09T14:10:36.710Z,92.54
2017-06-09T14:11:46.974Z,92.45
2017-06-09T14:12:57.267Z,92.79
2017-06-09T14:14:07.527Z,93.02
2017-06-09T14:15:17.476Z,93.07
2017-06-09T14:16:27.417Z,93.07
2017-06-09T14:17:37.684Z,92.69
2017-06-09T14:18:47.317Z,93.12
2017-06-09T14:19:57.574Z,93.36
2017-06-09T14:21:07.205Z,93.65
2017-06-09T14:22:16.522Z,93.36
2017-06-09T14:23:26.787Z,94.51
2017-06-09T14:24:36.744Z,94.17
2017-06-09T14:25:47.014Z,94.17
2017-06-09T14:26:57.270Z,93.5
2017-06-09T14:28:07.219Z,93.5
2017-06-09T14:29:17.161Z,94.07
2017-06-09T14:30:26.796Z,93.88
2017-06-09T14:31:37.056Z,93.5
2017-06-09T14:32:46.694Z,92.93
2017-06-09T14:33:56.954Z,92.93
2017-06-09T14:35:06.898Z,92.83
2017-06-09T14:36:16.846Z,93.02
2017-06-09T14:37:27.120Z,92.74
2017-06-09T14:38:37.381Z,93.35
2017-06-09T14:39:47.638Z,92.83
2017-06-09T14:40:57.275Z,92.25
2017-06-09T14:42:07.242Z,93.12
2017-06-09T14:43:17.506Z,92.35
2017-06-09T14:44:27.146Z,93.26
2017-06-09T14:45:37.408Z,92.88
2017-06-09T14:46:47.663Z,92.69
2017-06-09T14:47:57.298Z,92.49
2017-06-09T14:49:07.250Z,92.21
2017-06-09T14:50:17.516Z,92.3
2017-06-09T14:51:27.786Z,91.83
2017-06-09T14:52:38.051Z,91.92
2017-06-09T14:53:47.998Z,90.96
2017-06-09T14:54:57.629Z,91.44
2017-06-09T14:56:07.888Z,91.16
2017-06-09T14:57:17.840Z,91.01
2017-06-09T14:58:27.791Z,89.95
2017-06-09T14:59:37.740Z,90.53
2017-06-09T15:00:47.685Z,90.44
2017-06-09T15:01:57.940Z,90.63
2017-06-09T15:03:07.884Z,90.63
2017-06-09T15:04:17.833Z,89.43
2017-06-09T15:05:28.096Z,90.09
2017-06-09T15:06:38.359Z,90